North Argyle, New York
Current Conditions -  °F | °C
As of 6:53 PM on Saturday 25 Oct 2014 (Local Time) from KGFL Reporting Station
Overcast Overcast  
Wind Chill: 56°   Ceiling: 7000
Heat Index: 56°   Visibility: 10mi
Dew Point: 46°   Wind: 5mph
Humidity: 69%   Direction: 180°S
Pressure: 29.53"   Gusts: NA
Location:  43.2485°N, 73.457°W
Report Text: KGFL 252253Z AUTO 18004KT 10SM OVC070 13/08 A2953 RMK AO2 SLP001 T01330078
Loading
Personal Weather Stations






























Interactive Weather Map
Tropical Storm Tracking
New forecast layout! Learn more

10-Day Weather Forecast

Advertisements
Track Severe Weather on mobile